sensor_id;sensor_type;location;lat;lon;timestamp;P1;durP1;ratioP1;P2;durP2;ratioP2
1682;SDS011;13252;53.596;10.060;2023-04-24T00:00:32;7.30;;;6.60;;
1682;SDS011;13252;53.596;10.060;2023-04-24T00:03:00;9.20;;;7.50;;
1682;SDS011;13252;53.596;10.060;2023-04-24T00:05:29;7.10;;;6.37;;
1682;SDS011;13252;53.596;10.060;2023-04-24T00:07:57;7.83;;;6.37;;
1682;SDS011;13252;53.596;10.060;2023-04-24T00:10:25;7.17;;;6.20;;
1682;SDS011;13252;53.596;10.060;2023-04-24T00:12:53;7.43;;;6.63;;
1682;SDS011;13252;53.596;10.060;2023-04-24T00:15:23;6.87;;;6.13;;
1682;SDS011;13252;53.596;10.060;2023-04-24T00:17:51;7.73;;;6.47;;
1682;SDS011;13252;53.596;10.060;2023-04-24T00:20:20;6.70;;;6.10;;
1682;SDS011;13252;53.596;10.060;2023-04-24T00:22:49;9.00;;;7.43;;
1682;SDS011;13252;53.596;10.060;2023-04-24T00:25:17;11.73;;;7.40;;
1682;SDS011;13252;53.596;10.060;2023-04-24T00:27:45;9.40;;;6.33;;
1682;SDS011;13252;53.596;10.060;2023-04-24T00:30:13;9.47;;;6.80;;
1682;SDS011;13252;53.596;10.060;2023-04-24T00:32:43;7.90;;;6.70;;
1682;SDS011;13252;53.596;10.060;2023-04-24T00:35:11;8.00;;;7.20;;
1682;SDS011;13252;53.596;10.060;2023-04-24T00:37:38;7.53;;;6.73;;
1682;SDS011;13252;53.596;10.060;2023-04-24T00:40:07;7.67;;;6.70;;
1682;SDS011;13252;53.596;10.060;2023-04-24T00:42:36;7.20;;;6.50;;
1682;SDS011;13252;53.596;10.060;2023-04-24T00:45:04;8.03;;;7.10;;
1682;SDS011;13252;53.596;10.060;2023-04-24T00:47:33;7.10;;;6.40;;
1682;SDS011;13252;53.596;10.060;2023-04-24T00:50:03;8.43;;;6.70;;
1682;SDS011;13252;53.596;10.060;2023-04-24T00:52:33;8.97;;;7.23;;
1682;SDS011;13252;53.596;10.060;2023-04-24T00:55:01;7.87;;;7.07;;
1682;SDS011;13252;53.596;10.060;2023-04-24T00:57:29;11.50;;;7.50;;
1682;SDS011;13252;53.596;10.060;2023-04-24T00:59:58;8.20;;;7.30;;
1682;SDS011;13252;53.596;10.060;2023-04-24T01:02:26;7.70;;;6.97;;
1682;SDS011;13252;53.596;10.060;2023-04-24T01:04:54;10.27;;;7.47;;
1682;SDS011;13252;53.596;10.060;2023-04-24T01:07:24;8.13;;;7.43;;
1682;SDS011;13252;53.596;10.060;2023-04-24T01:09:52;7.70;;;7.00;;
1682;SDS011;13252;53.596;10.060;2023-04-24T01:12:20;8.20;;;7.40;;
1682;SDS011;13252;53.596;10.060;2023-04-24T01:14:48;8.80;;;7.90;;
1682;SDS011;13252;53.596;10.060;2023-04-24T01:17:16;7.93;;;6.97;;
1682;SDS011;13252;53.596;10.060;2023-04-24T01:19:46;9.60;;;7.73;;
1682;SDS011;13252;53.596;10.060;2023-04-24T01:22:15;9.03;;;7.10;;
1682;SDS011;13252;53.596;10.060;2023-04-24T01:24:44;9.10;;;7.73;;
1682;SDS011;13252;53.596;10.060;2023-04-24T01:27:12;8.43;;;7.50;;
1682;SDS011;13252;53.596;10.060;2023-04-24T01:29:40;8.17;;;7.37;;
1682;SDS011;13252;53.596;10.060;2023-04-24T01:32:08;8.43;;;7.63;;
1682;SDS011;13252;53.596;10.060;2023-04-24T01:34:37;7.87;;;7.07;;
1682;SDS011;13252;53.596;10.060;2023-04-24T01:37:05;8.53;;;7.23;;
1682;SDS011;13252;53.596;10.060;2023-04-24T01:39:35;7.80;;;7.00;;
1682;SDS011;13252;53.596;10.060;2023-04-24T01:42:03;6.93;;;6.33;;
1682;SDS011;13252;53.596;10.060;2023-04-24T01:44:31;10.73;;;6.40;;
1682;SDS011;13252;53.596;10.060;2023-04-24T01:47:02;6.40;;;5.80;;
1682;SDS011;13252;53.596;10.060;2023-04-24T01:49:31;6.90;;;6.30;;
1682;SDS011;13252;53.596;10.060;2023-04-24T01:51:59;7.60;;;6.23;;
1682;SDS011;13252;53.596;10.060;2023-04-24T01:54:29;6.70;;;5.90;;
1682;SDS011;13252;53.596;10.060;2023-04-24T01:56:59;7.33;;;5.40;;
1682;SDS011;13252;53.596;10.060;2023-04-24T01:59:28;6.00;;;5.40;;
1682;SDS011;13252;53.596;10.060;2023-04-24T02:01:57;5.97;;;5.37;;
1682;SDS011;13252;53.596;10.060;2023-04-24T02:04:25;10.43;;;6.47;;
1682;SDS011;13252;53.596;10.060;2023-04-24T02:06:54;7.77;;;5.57;;
1682;SDS011;13252;53.596;10.060;2023-04-24T02:09:23;11.20;;;5.00;;
1682;SDS011;13252;53.596;10.060;2023-04-24T02:11:51;5.70;;;5.03;;
1682;SDS011;13252;53.596;10.060;2023-04-24T02:14:20;4.93;;;4.53;;
1682;SDS011;13252;53.596;10.060;2023-04-24T02:16:48;5.70;;;4.10;;
1682;SDS011;13252;53.596;10.060;2023-04-24T02:19:16;4.87;;;4.37;;
1682;SDS011;13252;53.596;10.060;2023-04-24T02:21:44;6.40;;;4.47;;
1682;SDS011;13252;53.596;10.060;2023-04-24T02:24:12;4.50;;;4.10;;
1682;SDS011;13252;53.596;10.060;2023-04-24T02:26:40;8.60;;;4.80;;
1682;SDS011;13252;53.596;10.060;2023-04-24T02:29:08;6.13;;;3.70;;
1682;SDS011;13252;53.596;10.060;2023-04-24T02:31:38;4.30;;;3.90;;
1682;SDS011;13252;53.596;10.060;2023-04-24T02:34:06;5.20;;;3.70;;
1682;SDS011;13252;53.596;10.060;2023-04-24T02:36:34;6.90;;;4.60;;
1682;SDS011;13252;53.596;10.060;2023-04-24T02:39:02;4.70;;;3.90;;
1682;SDS011;13252;53.596;10.060;2023-04-24T02:41:31;4.70;;;4.20;;
1682;SDS011;13252;53.596;10.060;2023-04-24T02:43:59;4.63;;;4.23;;
1682;SDS011;13252;53.596;10.060;2023-04-24T02:46:27;5.70;;;3.90;;
1682;SDS011;13252;53.596;10.060;2023-04-24T02:48:56;4.97;;;4.17;;
1682;SDS011;13252;53.596;10.060;2023-04-24T02:51:24;4.27;;;3.87;;
1682;SDS011;13252;53.596;10.060;2023-04-24T02:53:53;5.37;;;4.50;;
1682;SDS011;13252;53.596;10.060;2023-04-24T02:56:21;5.80;;;3.83;;
1682;SDS011;13252;53.596;10.060;2023-04-24T02:58:49;9.03;;;4.27;;
1682;SDS011;13252;53.596;10.060;2023-04-24T03:01:17;6.00;;;3.63;;
1682;SDS011;13252;53.596;10.060;2023-04-24T03:03:45;4.57;;;3.47;;
1682;SDS011;13252;53.596;10.060;2023-04-24T03:06:15;4.57;;;3.67;;
1682;SDS011;13252;53.596;10.060;2023-04-24T03:08:43;3.57;;;3.00;;
1682;SDS011;13252;53.596;10.060;2023-04-24T03:11:10;6.87;;;3.57;;
1682;SDS011;13252;53.596;10.060;2023-04-24T03:13:40;3.83;;;3.10;;
1682;SDS011;13252;53.596;10.060;2023-04-24T03:16:08;4.60;;;3.00;;
1682;SDS011;13252;53.596;10.060;2023-04-24T03:18:36;4.80;;;2.90;;
1682;SDS011;13252;53.596;10.060;2023-04-24T03:21:06;5.93;;;3.00;;
1682;SDS011;13252;53.596;10.060;2023-04-24T03:23:36;6.53;;;3.50;;
1682;SDS011;13252;53.596;10.060;2023-04-24T03:26:04;5.07;;;2.80;;
1682;SDS011;13252;53.596;10.060;2023-04-24T03:28:34;3.90;;;2.67;;
1682;SDS011;13252;53.596;10.060;2023-04-24T03:31:03;4.50;;;3.03;;
1682;SDS011;13252;53.596;10.060;2023-04-24T03:33:35;5.30;;;2.50;;
1682;SDS011;13252;53.596;10.060;2023-04-24T03:36:03;3.93;;;2.50;;
1682;SDS011;13252;53.596;10.060;2023-04-24T03:38:39;3.70;;;2.40;;
1682;SDS011;13252;53.596;10.060;2023-04-24T03:41:26;3.47;;;2.27;;
1682;SDS011;13252;53.596;10.060;2023-04-24T03:44:01;4.03;;;2.73;;
1682;SDS011;13252;53.596;10.060;2023-04-24T03:46:30;3.40;;;2.30;;
1682;SDS011;13252;53.596;10.060;2023-04-24T03:49:01;3.43;;;2.53;;
1682;SDS011;13252;53.596;10.060;2023-04-24T03:51:34;3.13;;;2.23;;
1682;SDS011;13252;53.596;10.060;2023-04-24T03:54:17;2.90;;;2.23;;
1682;SDS011;13252;53.596;10.060;2023-04-24T03:56:45;6.83;;;2.30;;
1682;SDS011;13252;53.596;10.060;2023-04-24T03:59:13;2.40;;;1.97;;
1682;SDS011;13252;53.596;10.060;2023-04-24T04:01:46;2.93;;;2.20;;
1682;SDS011;13252;53.596;10.060;2023-04-24T04:04:15;5.90;;;2.47;;
1682;SDS011;13252;53.596;10.060;2023-04-24T04:06:44;4.70;;;2.43;;
1682;SDS011;13252;53.596;10.060;2023-04-24T04:09:13;3.47;;;2.27;;
1682;SDS011;13252;53.596;10.060;2023-04-24T04:11:43;2.80;;;2.10;;
1682;SDS011;13252;53.596;10.060;2023-04-24T04:14:11;5.70;;;2.30;;
1682;SDS011;13252;53.596;10.060;2023-04-24T04:16:42;4.63;;;2.77;;
1682;SDS011;13252;53.596;10.060;2023-04-24T04:19:11;13.93;;;2.23;;
1682;SDS011;13252;53.596;10.060;2023-04-24T04:21:39;2.60;;;2.30;;
1682;SDS011;13252;53.596;10.060;2023-04-24T04:24:13;4.30;;;2.90;;
1682;SDS011;13252;53.596;10.060;2023-04-24T04:26:45;3.50;;;2.90;;
1682;SDS011;13252;53.596;10.060;2023-04-24T04:29:43;5.47;;;2.77;;
1682;SDS011;13252;53.596;10.060;2023-04-24T04:32:12;3.40;;;2.60;;
1682;SDS011;13252;53.596;10.060;2023-04-24T04:34:42;4.20;;;2.00;;
1682;SDS011;13252;53.596;10.060;2023-04-24T04:37:12;5.50;;;2.27;;
1682;SDS011;13252;53.596;10.060;2023-04-24T04:40:06;3.83;;;2.00;;
1682;SDS011;13252;53.596;10.060;2023-04-24T04:42:46;2.73;;;2.07;;
1682;SDS011;13252;53.596;10.060;2023-04-24T04:45:14;2.97;;;1.90;;
1682;SDS011;13252;53.596;10.060;2023-04-24T04:48:03;3.10;;;2.30;;
1682;SDS011;13252;53.596;10.060;2023-04-24T04:50:34;2.70;;;1.80;;
1682;SDS011;13252;53.596;10.060;2023-04-24T04:53:06;2.37;;;1.53;;
1682;SDS011;13252;53.596;10.060;2023-04-24T04:55:37;2.57;;;1.70;;
1682;SDS011;13252;53.596;10.060;2023-04-24T04:58:15;3.03;;;1.60;;
1682;SDS011;13252;53.596;10.060;2023-04-24T05:00:44;7.60;;;1.80;;
1682;SDS011;13252;53.596;10.060;2023-04-24T05:03:21;3.10;;;2.00;;
1682;SDS011;13252;53.596;10.060;2023-04-24T05:05:56;3.23;;;1.70;;
1682;SDS011;13252;53.596;10.060;2023-04-24T05:08:25;2.33;;;1.77;;
1682;SDS011;13252;53.596;10.060;2023-04-24T05:10:54;2.50;;;1.80;;
1682;SDS011;13252;53.596;10.060;2023-04-24T05:13:26;2.93;;;1.67;;
1682;SDS011;13252;53.596;10.060;2023-04-24T05:16:16;2.80;;;2.00;;
1682;SDS011;13252;53.596;10.060;2023-04-24T05:18:44;3.33;;;2.00;;
1682;SDS011;13252;53.596;10.060;2023-04-24T05:21:16;3.37;;;1.70;;
1682;SDS011;13252;53.596;10.060;2023-04-24T05:23:48;3.00;;;1.60;;
1682;SDS011;13252;53.596;10.060;2023-04-24T05:26:25;6.63;;;1.50;;
1682;SDS011;13252;53.596;10.060;2023-04-24T05:28:56;3.27;;;1.93;;
1682;SDS011;13252;53.596;10.060;2023-04-24T05:31:24;3.80;;;1.60;;
1682;SDS011;13252;53.596;10.060;2023-04-24T05:33:53;2.67;;;1.67;;
1682;SDS011;13252;53.596;10.060;2023-04-24T05:36:21;5.47;;;1.80;;
1682;SDS011;13252;53.596;10.060;2023-04-24T05:38:49;9.13;;;1.60;;
1682;SDS011;13252;53.596;10.060;2023-04-24T05:41:17;2.80;;;1.40;;
1682;SDS011;13252;53.596;10.060;2023-04-24T05:43:45;2.67;;;1.53;;
1682;SDS011;13252;53.596;10.060;2023-04-24T05:46:14;6.17;;;1.40;;
1682;SDS011;13252;53.596;10.060;2023-04-24T05:54:45;2.50;;;1.40;;
1682;SDS011;13252;53.596;10.060;2023-04-24T05:57:20;2.77;;;1.67;;
1682;SDS011;13252;53.596;10.060;2023-04-24T05:59:55;3.30;;;1.50;;
1682;SDS011;13252;53.596;10.060;2023-04-24T06:02:26;3.63;;;1.43;;
1682;SDS011;13252;53.596;10.060;2023-04-24T06:04:59;4.77;;;1.87;;
1682;SDS011;13252;53.596;10.060;2023-04-24T06:07:28;4.83;;;1.90;;
1682;SDS011;13252;53.596;10.060;2023-04-24T06:09:56;3.40;;;1.93;;
1682;SDS011;13252;53.596;10.060;2023-04-24T06:12:25;3.63;;;2.03;;
1682;SDS011;13252;53.596;10.060;2023-04-24T06:14:58;2.70;;;1.90;;
1682;SDS011;13252;53.596;10.060;2023-04-24T06:18:03;2.40;;;1.80;;
1682;SDS011;13252;53.596;10.060;2023-04-24T06:20:32;2.70;;;1.40;;
1682;SDS011;13252;53.596;10.060;2023-04-24T06:23:01;3.10;;;1.60;;
1682;SDS011;13252;53.596;10.060;2023-04-24T06:25:28;2.30;;;1.30;;
1682;SDS011;13252;53.596;10.060;2023-04-24T06:27:56;2.80;;;1.77;;
1682;SDS011;13252;53.596;10.060;2023-04-24T06:30:25;2.27;;;1.37;;
1682;SDS011;13252;53.596;10.060;2023-04-24T06:32:54;4.67;;;1.67;;
1682;SDS011;13252;53.596;10.060;2023-04-24T06:35:33;3.50;;;1.80;;
1682;SDS011;13252;53.596;10.060;2023-04-24T06:38:01;4.13;;;1.90;;
1682;SDS011;13252;53.596;10.060;2023-04-24T06:40:28;2.60;;;1.37;;
1682;SDS011;13252;53.596;10.060;2023-04-24T06:42:58;2.53;;;1.40;;
1682;SDS011;13252;53.596;10.060;2023-04-24T06:45:31;2.83;;;1.47;;
1682;SDS011;13252;53.596;10.060;2023-04-24T06:47:59;2.93;;;1.80;;
1682;SDS011;13252;53.596;10.060;2023-04-24T06:50:33;4.30;;;1.70;;
1682;SDS011;13252;53.596;10.060;2023-04-24T06:53:12;2.77;;;1.83;;
1682;SDS011;13252;53.596;10.060;2023-04-24T06:55:40;2.30;;;1.70;;
1682;SDS011;13252;53.596;10.060;2023-04-24T06:58:09;2.63;;;1.60;;
1682;SDS011;13252;53.596;10.060;2023-04-24T07:00:37;4.00;;;2.50;;
1682;SDS011;13252;53.596;10.060;2023-04-24T07:03:05;3.03;;;1.90;;
1682;SDS011;13252;53.596;10.060;2023-04-24T07:05:33;4.10;;;1.67;;
1682;SDS011;13252;53.596;10.060;2023-04-24T07:08:05;3.20;;;2.30;;
1682;SDS011;13252;53.596;10.060;2023-04-24T07:10:35;2.90;;;1.80;;
1682;SDS011;13252;53.596;10.060;2023-04-24T07:13:04;5.40;;;1.70;;
1682;SDS011;13252;53.596;10.060;2023-04-24T07:15:33;3.50;;;2.13;;
1682;SDS011;13252;53.596;10.060;2023-04-24T07:18:01;2.70;;;2.10;;
1682;SDS011;13252;53.596;10.060;2023-04-24T07:20:31;2.67;;;1.93;;
1682;SDS011;13252;53.596;10.060;2023-04-24T07:23:02;5.63;;;2.87;;
1682;SDS011;13252;53.596;10.060;2023-04-24T07:29:50;6.53;;;2.63;;
1682;SDS011;13252;53.596;10.060;2023-04-24T07:32:17;6.80;;;2.50;;
1682;SDS011;13252;53.596;10.060;2023-04-24T07:35:01;7.97;;;3.17;;
1682;SDS011;13252;53.596;10.060;2023-04-24T07:37:54;3.37;;;2.30;;
1682;SDS011;13252;53.596;10.060;2023-04-24T07:50:18;3.80;;;2.77;;
1682;SDS011;13252;53.596;10.060;2023-04-24T07:52:47;4.20;;;3.57;;
1682;SDS011;13252;53.596;10.060;2023-04-24T07:55:15;4.97;;;3.50;;
1682;SDS011;13252;53.596;10.060;2023-04-24T07:57:44;4.23;;;3.43;;
1682;SDS011;13252;53.596;10.060;2023-04-24T08:00:13;7.87;;;3.23;;
1682;SDS011;13252;53.596;10.060;2023-04-24T08:02:41;5.17;;;3.23;;
1682;SDS011;13252;53.596;10.060;2023-04-24T08:05:09;14.73;;;3.10;;
1682;SDS011;13252;53.596;10.060;2023-04-24T08:07:37;3.87;;;2.90;;
1682;SDS011;13252;53.596;10.060;2023-04-24T08:10:06;4.93;;;3.20;;
1682;SDS011;13252;53.596;10.060;2023-04-24T08:12:34;5.67;;;3.77;;
1682;SDS011;13252;53.596;10.060;2023-04-24T08:15:04;12.50;;;3.87;;
1682;SDS011;13252;53.596;10.060;2023-04-24T08:17:33;4.40;;;4.00;;
1682;SDS011;13252;53.596;10.060;2023-04-24T08:20:01;4.93;;;4.20;;
1682;SDS011;13252;53.596;10.060;2023-04-24T08:22:30;6.50;;;5.00;;
1682;SDS011;13252;53.596;10.060;2023-04-24T08:24:59;4.80;;;4.27;;
1682;SDS011;13252;53.596;10.060;2023-04-24T08:27:27;5.10;;;4.60;;
1682;SDS011;13252;53.596;10.060;2023-04-24T08:29:56;5.00;;;4.30;;
1682;SDS011;13252;53.596;10.060;2023-04-24T08:32:26;6.13;;;4.57;;
1682;SDS011;13252;53.596;10.060;2023-04-24T08:34:55;5.63;;;4.20;;
1682;SDS011;13252;53.596;10.060;2023-04-24T08:37:24;5.50;;;4.30;;
1682;SDS011;13252;53.596;10.060;2023-04-24T08:39:53;4.60;;;4.10;;
1682;SDS011;13252;53.596;10.060;2023-04-24T08:42:21;5.17;;;4.57;;
1682;SDS011;13252;53.596;10.060;2023-04-24T08:44:49;6.03;;;4.70;;
1682;SDS011;13252;53.596;10.060;2023-04-24T08:47:17;4.70;;;4.20;;
1682;SDS011;13252;53.596;10.060;2023-04-24T08:49:49;4.40;;;4.00;;
1682;SDS011;13252;53.596;10.060;2023-04-24T08:52:17;5.13;;;4.63;;
1682;SDS011;13252;53.596;10.060;2023-04-24T08:54:46;4.67;;;3.90;;
1682;SDS011;13252;53.596;10.060;2023-04-24T08:57:14;8.23;;;4.57;;
1682;SDS011;13252;53.596;10.060;2023-04-24T08:59:42;6.80;;;4.20;;
1682;SDS011;13252;53.596;10.060;2023-04-24T09:02:12;6.90;;;4.50;;
1682;SDS011;13252;53.596;10.060;2023-04-24T09:05:39;5.97;;;5.10;;
1682;SDS011;13252;53.596;10.060;2023-04-24T09:11:34;6.03;;;5.43;;
1682;SDS011;13252;53.596;10.060;2023-04-24T09:14:01;8.10;;;5.67;;
1682;SDS011;13252;53.596;10.060;2023-04-24T09:16:29;8.60;;;4.60;;
1682;SDS011;13252;53.596;10.060;2023-04-24T09:19:02;5.60;;;5.10;;
1682;SDS011;13252;53.596;10.060;2023-04-24T09:21:32;5.30;;;4.80;;
1682;SDS011;13252;53.596;10.060;2023-04-24T09:24:01;9.00;;;5.70;;
1682;SDS011;13252;53.596;10.060;2023-04-24T09:26:31;5.63;;;4.90;;
1682;SDS011;13252;53.596;10.060;2023-04-24T09:28:59;5.00;;;4.23;;
1682;SDS011;13252;53.596;10.060;2023-04-24T09:31:28;5.93;;;4.67;;
1682;SDS011;13252;53.596;10.060;2023-04-24T09:33:59;5.00;;;4.40;;
1682;SDS011;13252;53.596;10.060;2023-04-24T09:36:31;5.77;;;5.00;;
1682;SDS011;13252;53.596;10.060;2023-04-24T09:39:05;5.53;;;4.47;;
1682;SDS011;13252;53.596;10.060;2023-04-24T09:42:45;4.90;;;4.40;;
1682;SDS011;13252;53.596;10.060;2023-04-24T09:45:14;6.80;;;6.20;;
1682;SDS011;13252;53.596;10.060;2023-04-24T09:47:41;5.97;;;5.23;;
1682;SDS011;13252;53.596;10.060;2023-04-24T09:50:11;6.10;;;4.80;;
1682;SDS011;13252;53.596;10.060;2023-04-24T09:52:43;6.80;;;5.10;;
1682;SDS011;13252;53.596;10.060;2023-04-24T09:55:16;7.03;;;5.60;;
1682;SDS011;13252;53.596;10.060;2023-04-24T09:57:48;6.40;;;5.43;;
1682;SDS011;13252;53.596;10.060;2023-04-24T10:00:18;7.03;;;6.37;;
1682;SDS011;13252;53.596;10.060;2023-04-24T10:02:49;6.37;;;5.77;;
1682;SDS011;13252;53.596;10.060;2023-04-24T10:05:18;5.90;;;5.17;;
1682;SDS011;13252;53.596;10.060;2023-04-24T10:07:48;6.10;;;5.50;;
1682;SDS011;13252;53.596;10.060;2023-04-24T10:10:19;5.47;;;4.87;;
1682;SDS011;13252;53.596;10.060;2023-04-24T10:12:47;9.77;;;6.87;;
1682;SDS011;13252;53.596;10.060;2023-04-24T10:15:15;6.37;;;5.77;;
1682;SDS011;13252;53.596;10.060;2023-04-24T10:17:47;8.27;;;6.03;;
1682;SDS011;13252;53.596;10.060;2023-04-24T10:20:19;8.10;;;6.27;;
1682;SDS011;13252;53.596;10.060;2023-04-24T10:22:50;7.93;;;6.50;;
1682;SDS011;13252;53.596;10.060;2023-04-24T10:25:19;9.83;;;6.50;;
1682;SDS011;13252;53.596;10.060;2023-04-24T10:27:49;10.67;;;6.80;;
1682;SDS011;13252;53.596;10.060;2023-04-24T10:30:18;8.80;;;7.83;;
1682;SDS011;13252;53.596;10.060;2023-04-24T10:32:47;8.07;;;7.27;;
1682;SDS011;13252;53.596;10.060;2023-04-24T10:35:15;10.90;;;7.77;;
1682;SDS011;13252;53.596;10.060;2023-04-24T10:37:49;9.80;;;7.67;;
1682;SDS011;13252;53.596;10.060;2023-04-24T10:40:25;15.90;;;9.33;;
1682;SDS011;13252;53.596;10.060;2023-04-24T10:42:54;12.90;;;8.83;;
1682;SDS011;13252;53.596;10.060;2023-04-24T10:45:24;9.00;;;8.10;;
1682;SDS011;13252;53.596;10.060;2023-04-24T10:47:56;9.93;;;8.20;;
1682;SDS011;13252;53.596;10.060;2023-04-24T10:50:42;9.30;;;8.00;;
1682;SDS011;13252;53.596;10.060;2023-04-24T10:53:15;14.53;;;8.40;;
1682;SDS011;13252;53.596;10.060;2023-04-24T10:55:45;10.73;;;8.80;;
1682;SDS011;13252;53.596;10.060;2023-04-24T10:58:15;11.60;;;8.77;;
1682;SDS011;13252;53.596;10.060;2023-04-24T11:00:48;14.07;;;9.17;;
1682;SDS011;13252;53.596;10.060;2023-04-24T11:03:24;12.80;;;9.97;;
1682;SDS011;13252;53.596;10.060;2023-04-24T11:05:58;11.87;;;9.33;;
1682;SDS011;13252;53.596;10.060;2023-04-24T11:08:33;12.47;;;9.43;;
1682;SDS011;13252;53.596;10.060;2023-04-24T11:11:08;10.60;;;8.93;;
1682;SDS011;13252;53.596;10.060;2023-04-24T11:16:34;10.90;;;9.80;;
1682;SDS011;13252;53.596;10.060;2023-04-24T11:19:23;11.50;;;9.90;;
1682;SDS011;13252;53.596;10.060;2023-04-24T11:21:57;11.10;;;9.53;;
1682;SDS011;13252;53.596;10.060;2023-04-24T11:24:29;14.60;;;9.90;;
1682;SDS011;13252;53.596;10.060;2023-04-24T11:27:00;11.83;;;9.10;;
1682;SDS011;13252;53.596;10.060;2023-04-24T11:29:40;11.23;;;9.40;;
1682;SDS011;13252;53.596;10.060;2023-04-24T11:32:22;13.30;;;9.50;;
1682;SDS011;13252;53.596;10.060;2023-04-24T11:34:52;9.47;;;8.47;;
1682;SDS011;13252;53.596;10.060;2023-04-24T11:37:21;10.50;;;9.40;;
1682;SDS011;13252;53.596;10.060;2023-04-24T11:39:52;10.43;;;9.30;;
1682;SDS011;13252;53.596;10.060;2023-04-24T11:42:21;10.17;;;9.07;;
1682;SDS011;13252;53.596;10.060;2023-04-24T11:44:52;11.27;;;9.37;;
1682;SDS011;13252;53.596;10.060;2023-04-24T11:47:32;11.07;;;9.20;;
1682;SDS011;13252;53.596;10.060;2023-04-24T11:50:00;10.10;;;9.03;;
1682;SDS011;13252;53.596;10.060;2023-04-24T11:52:30;12.43;;;10.00;;
1682;SDS011;13252;53.596;10.060;2023-04-24T11:54:59;10.67;;;8.37;;
1682;SDS011;13252;53.596;10.060;2023-04-24T11:57:28;9.20;;;7.13;;
1682;SDS011;13252;53.596;10.060;2023-04-24T12:00:00;8.40;;;7.60;;
1682;SDS011;13252;53.596;10.060;2023-04-24T12:02:37;12.00;;;7.20;;
1682;SDS011;13252;53.596;10.060;2023-04-24T12:05:06;10.47;;;6.60;;
1682;SDS011;13252;53.596;10.060;2023-04-24T12:07:40;9.10;;;7.60;;
1682;SDS011;13252;53.596;10.060;2023-04-24T12:10:11;10.40;;;7.17;;
1682;SDS011;13252;53.596;10.060;2023-04-24T12:12:38;7.87;;;6.93;;
1682;SDS011;13252;53.596;10.060;2023-04-24T12:15:07;7.50;;;6.70;;
1682;SDS011;13252;53.596;10.060;2023-04-24T12:17:35;9.70;;;6.47;;
1682;SDS011;13252;53.596;10.060;2023-04-24T12:20:04;7.33;;;6.60;;
1682;SDS011;13252;53.596;10.060;2023-04-24T12:22:44;7.57;;;6.30;;
1682;SDS011;13252;53.596;10.060;2023-04-24T12:25:14;9.00;;;7.60;;
1682;SDS011;13252;53.596;10.060;2023-04-24T12:27:44;7.90;;;5.90;;
1682;SDS011;13252;53.596;10.060;2023-04-24T12:30:13;7.37;;;6.23;;
1682;SDS011;13252;53.596;10.060;2023-04-24T12:32:42;11.80;;;6.60;;
1682;SDS011;13252;53.596;10.060;2023-04-24T12:35:10;10.80;;;6.87;;
1682;SDS011;13252;53.596;10.060;2023-04-24T12:37:41;7.17;;;6.47;;
1682;SDS011;13252;53.596;10.060;2023-04-24T12:40:13;9.20;;;6.20;;
1682;SDS011;13252;53.596;10.060;2023-04-24T12:42:43;7.60;;;6.70;;
1682;SDS011;13252;53.596;10.060;2023-04-24T12:45:13;9.90;;;6.47;;
1682;SDS011;13252;53.596;10.060;2023-04-24T12:47:42;12.37;;;6.67;;
1682;SDS011;13252;53.596;10.060;2023-04-24T12:50:11;7.33;;;6.63;;
1682;SDS011;13252;53.596;10.060;2023-04-24T12:52:40;10.50;;;7.17;;
1682;SDS011;13252;53.596;10.060;2023-04-24T12:55:09;8.20;;;7.00;;
1682;SDS011;13252;53.596;10.060;2023-04-24T12:57:39;10.10;;;7.20;;
1682;SDS011;13252;53.596;10.060;2023-04-24T13:00:08;7.17;;;6.47;;
1682;SDS011;13252;53.596;10.060;2023-04-24T13:02:37;8.90;;;7.30;;
1682;SDS011;13252;53.596;10.060;2023-04-24T13:05:05;7.40;;;6.70;;
1682;SDS011;13252;53.596;10.060;2023-04-24T13:07:33;13.00;;;8.57;;
1682;SDS011;13252;53.596;10.060;2023-04-24T13:10:01;10.00;;;7.03;;
1682;SDS011;13252;53.596;10.060;2023-04-24T13:12:29;12.13;;;6.50;;
1682;SDS011;13252;53.596;10.060;2023-04-24T13:14:58;7.90;;;7.10;;
1682;SDS011;13252;53.596;10.060;2023-04-24T13:17:26;10.43;;;7.43;;
1682;SDS011;13252;53.596;10.060;2023-04-24T13:19:54;8.27;;;7.47;;
1682;SDS011;13252;53.596;10.060;2023-04-24T13:22:23;9.27;;;8.27;;
1682;SDS011;13252;53.596;10.060;2023-04-24T13:24:51;8.30;;;7.07;;
1682;SDS011;13252;53.596;10.060;2023-04-24T13:27:19;6.30;;;5.67;;
1682;SDS011;13252;53.596;10.060;2023-04-24T13:29:46;7.53;;;6.40;;
1682;SDS011;13252;53.596;10.060;2023-04-24T13:32:16;9.50;;;7.53;;
1682;SDS011;13252;53.596;10.060;2023-04-24T13:34:45;6.73;;;5.70;;
1682;SDS011;13252;53.596;10.060;2023-04-24T13:37:13;13.20;;;7.80;;
1682;SDS011;13252;53.596;10.060;2023-04-24T13:39:41;8.70;;;7.03;;
1682;SDS011;13252;53.596;10.060;2023-04-24T13:42:09;7.23;;;6.53;;
1682;SDS011;13252;53.596;10.060;2023-04-24T13:44:37;8.20;;;6.80;;
1682;SDS011;13252;53.596;10.060;2023-04-24T13:47:05;7.50;;;6.80;;
1682;SDS011;13252;53.596;10.060;2023-04-24T13:49:34;6.67;;;5.97;;
1682;SDS011;13252;53.596;10.060;2023-04-24T13:52:01;6.20;;;5.60;;
1682;SDS011;13252;53.596;10.060;2023-04-24T13:54:29;11.70;;;6.50;;
1682;SDS011;13252;53.596;10.060;2023-04-24T13:56:57;5.90;;;5.40;;
1682;SDS011;13252;53.596;10.060;2023-04-24T13:59:26;6.63;;;5.97;;
1682;SDS011;13252;53.596;10.060;2023-04-24T14:01:55;6.87;;;5.23;;
1682;SDS011;13252;53.596;10.060;2023-04-24T14:04:23;15.27;;;5.57;;
1682;SDS011;13252;53.596;10.060;2023-04-24T14:06:52;6.00;;;4.83;;
1682;SDS011;13252;53.596;10.060;2023-04-24T14:09:20;5.63;;;5.13;;
1682;SDS011;13252;53.596;10.060;2023-04-24T14:11:48;5.97;;;5.33;;
1682;SDS011;13252;53.596;10.060;2023-04-24T14:14:16;6.00;;;5.40;;
1682;SDS011;13252;53.596;10.060;2023-04-24T14:16:44;6.93;;;5.50;;
1682;SDS011;13252;53.596;10.060;2023-04-24T14:19:11;13.43;;;5.77;;
1682;SDS011;13252;53.596;10.060;2023-04-24T14:21:39;6.70;;;5.50;;
1682;SDS011;13252;53.596;10.060;2023-04-24T14:24:09;6.80;;;5.40;;
1682;SDS011;13252;53.596;10.060;2023-04-24T14:26:37;6.73;;;5.83;;
1682;SDS011;13252;53.596;10.060;2023-04-24T14:29:05;6.13;;;5.13;;
1682;SDS011;13252;53.596;10.060;2023-04-24T14:31:40;5.67;;;5.10;;
1682;SDS011;13252;53.596;10.060;2023-04-24T14:34:09;5.50;;;5.00;;
1682;SDS011;13252;53.596;10.060;2023-04-24T14:36:37;5.03;;;4.50;;
1682;SDS011;13252;53.596;10.060;2023-04-24T14:39:05;6.67;;;5.00;;
1682;SDS011;13252;53.596;10.060;2023-04-24T14:41:35;6.57;;;5.23;;
1682;SDS011;13252;53.596;10.060;2023-04-24T14:44:03;7.10;;;4.87;;
1682;SDS011;13252;53.596;10.060;2023-04-24T14:46:32;5.50;;;4.70;;
1682;SDS011;13252;53.596;10.060;2023-04-24T14:49:00;7.17;;;4.43;;
1682;SDS011;13252;53.596;10.060;2023-04-24T14:51:28;7.20;;;6.50;;
1682;SDS011;13252;53.596;10.060;2023-04-24T14:53:56;6.90;;;6.00;;
1682;SDS011;13252;53.596;10.060;2023-04-24T14:56:25;8.07;;;7.30;;
1682;SDS011;13252;53.596;10.060;2023-04-24T14:58:55;13.23;;;8.07;;
1682;SDS011;13252;53.596;10.060;2023-04-24T15:01:22;8.87;;;7.97;;
1682;SDS011;13252;53.596;10.060;2023-04-24T15:03:51;9.20;;;8.23;;
1682;SDS011;13252;53.596;10.060;2023-04-24T15:06:20;10.37;;;9.37;;
1682;SDS011;13252;53.596;10.060;2023-04-24T15:08:48;12.00;;;9.20;;
1682;SDS011;13252;53.596;10.060;2023-04-24T15:11:16;11.23;;;10.10;;
1682;SDS011;13252;53.596;10.060;2023-04-24T15:13:44;10.50;;;9.60;;
1682;SDS011;13252;53.596;10.060;2023-04-24T15:16:14;10.63;;;9.57;;
1682;SDS011;13252;53.596;10.060;2023-04-24T15:18:42;9.53;;;8.50;;
1682;SDS011;13252;53.596;10.060;2023-04-24T15:21:10;8.37;;;7.57;;
1682;SDS011;13252;53.596;10.060;2023-04-24T15:23:39;8.90;;;8.00;;
1682;SDS011;13252;53.596;10.060;2023-04-24T15:26:07;7.67;;;6.27;;
1682;SDS011;13252;53.596;10.060;2023-04-24T15:28:35;7.50;;;6.40;;
1682;SDS011;13252;53.596;10.060;2023-04-24T15:31:03;5.80;;;5.00;;